Time;durP1;ratioP1;P1;durP2;ratioP2;P2;SDS_P1;SDS_P2;PMS_P1;PMS_P2;Temp;Humidity;BMP_temperature;BMP_pressure;BME280_temperature;BME280_humidity;BME280_pressure;Samples;Min_cycle;Max_cycle;Signal;HPM_P1;HPM_P2
2022/10/20 00:01:12;;;;;;;;;;;7.90;88.90;;;;;;5037382;28;19957;-80
2022/10/20 00:03:38;;;;;;;;;;;7.90;88.90;;;;;;5032453;28;20016;-81
2022/10/20 00:06:06;;;;;;;;;;;7.90;88.60;;;;;;5031626;28;19963;-82
2022/10/20 00:08:32;;;;;;;;;;;7.90;88.60;;;;;;5033261;28;20391;-80
2022/10/20 00:10:57;;;;;;;;;;;7.90;88.60;;;;;;5037160;28;19913;-82
2022/10/20 00:13:23;;;;;;;;;;;8.10;88.40;;;;;;5031195;28;19924;-82
2022/10/20 00:15:52;;;;;;;;;;;8.20;88.10;;;;;;5027735;28;19921;-80
2022/10/20 00:18:18;;;;;;;;;;;8.30;88.00;;;;;;5029666;28;20506;-82
2022/10/20 00:20:44;;;;;;;;;;;8.30;87.80;;;;;;5031537;28;19924;-80
2022/10/20 00:23:09;;;;;;;;;;;8.30;87.90;;;;;;5031170;28;20358;-81
2022/10/20 00:25:35;;;;;;;;;;;8.50;87.50;;;;;;5021546;28;19914;-81
2022/10/20 00:28:00;;;;;;;;;;;8.70;86.00;;;;;;5031181;28;19921;-81
2022/10/20 00:30:26;;;;;;;;;;;8.40;86.70;;;;;;5031816;28;19913;-81
2022/10/20 00:32:51;;;;;;;;;;;8.50;86.80;;;;;;5031730;28;19959;-80
2022/10/20 00:35:16;;;;;;;;;;;8.50;86.40;;;;;;5034055;28;19976;-81
2022/10/20 00:37:42;;;;;;;;;;;8.20;86.70;;;;;;5033647;28;20280;-80
2022/10/20 00:40:08;;;;;;;;;;;8.10;87.10;;;;;;5030002;28;19917;-81
2022/10/20 00:42:33;;;;;;;;;;;8.10;87.60;;;;;;5033565;28;19909;-80
2022/10/20 00:44:59;;;;;;;;;;;8.20;87.90;;;;;;5048084;22;19937;-82
2022/10/20 00:47:39;;;;;;;;;;;8.10;87.50;;;;;;5015027;28;20379;-83
2022/10/20 00:50:10;;;;;;;;;;;8.10;87.60;;;;;;5008527;28;20291;-83
2022/10/20 00:52:36;;;;;;;;;;;8.10;87.50;;;;;;5021840;28;19959;-82
2022/10/20 00:55:02;;;;;;;;;;;7.90;87.60;;;;;;5015599;28;19921;-83
2022/10/20 00:57:29;;;;;;;;;;;7.90;87.80;;;;;;5016765;28;19909;-83
2022/10/20 00:59:54;;;;;;;;;;;7.80;87.80;;;;;;5014141;28;19917;-83
2022/10/20 01:02:20;;;;;;;;;;;7.70;88.10;;;;;;5013234;28;20008;-83
2022/10/20 01:04:46;;;;;;;;;;;7.80;88.20;;;;;;5014926;28;20331;-83
2022/10/20 01:07:11;;;;;;;;;;;7.70;88.50;;;;;;5013899;28;19924;-83
2022/10/20 01:09:37;;;;;;;;;;;7.90;88.80;;;;;;5026597;28;19928;-82
2022/10/20 01:12:12;;;;;;;;;;;7.80;88.30;;;;;;5031813;28;19920;-84
2022/10/20 01:14:42;;;;;;;;;;;7.80;88.30;;;;;;5022568;28;19917;-84
2022/10/20 01:17:22;;;;;;;;;;;7.80;88.30;;;;;;5021612;28;19918;-84
2022/10/20 01:20:03;;;;;;;;;;;7.90;88.40;;;;;;5014424;28;19918;-83
2022/10/20 01:22:41;;;;;;;;;;;7.80;88.30;;;;;;5006162;28;19949;-83
2022/10/20 01:25:25;;;;;;;;;;;7.80;88.10;;;;;;5011703;28;20292;-83
2022/10/20 01:27:54;;;;;;;;;;;7.70;88.30;;;;;;5014330;28;20008;-84
2022/10/20 01:30:21;;;;;;;;;;;7.60;88.40;;;;;;5018231;28;19968;-83
2022/10/20 01:32:53;;;;;;;;;;;7.60;88.50;;;;;;5015201;28;20371;-84
2022/10/20 01:35:26;;;;;;;;;;;7.50;88.70;;;;;;5015662;28;20008;-84
2022/10/20 01:37:56;;;;;;;;;;;7.50;88.90;;;;;;5012607;28;19910;-84
2022/10/20 01:40:30;;;;;;;;;;;7.60;89.00;;;;;;5014719;28;20278;-84
2022/10/20 01:42:58;;;;;;;;;;;7.60;89.10;;;;;;5015410;28;20427;-83
2022/10/20 01:45:26;;;;;;;;;;;7.60;88.90;;;;;;5015093;28;19972;-83
2022/10/20 01:47:52;;;;;;;;;;;7.60;88.70;;;;;;5014430;28;19921;-83
2022/10/20 01:50:18;;;;;;;;;;;7.60;88.80;;;;;;5013632;28;19952;-83
2022/10/20 01:52:43;;;;;;;;;;;7.70;88.80;;;;;;5015820;28;20268;-83
2022/10/20 01:55:13;;;;;;;;;;;7.70;88.60;;;;;;5014096;28;19924;-84
2022/10/20 01:57:42;;;;;;;;;;;7.60;88.60;;;;;;5015118;28;19913;-82
2022/10/20 02:00:10;;;;;;;;;;;7.60;88.50;;;;;;5015408;28;19913;-84
2022/10/20 02:02:36;;;;;;;;;;;7.60;88.70;;;;;;5018144;28;19913;-83
2022/10/20 02:05:20;;;;;;;;;;;7.70;88.60;;;;;;5018357;28;19921;-83
2022/10/20 02:07:45;;;;;;;;;;;7.80;88.40;;;;;;5016718;28;19914;-83
2022/10/20 02:10:23;;;;;;;;;;;7.90;88.10;;;;;;5014842;28;20260;-83
2022/10/20 02:12:51;;;;;;;;;;;8.00;87.70;;;;;;5016445;28;19921;-84
2022/10/20 02:15:20;;;;;;;;;;;8.00;87.70;;;;;;5016171;28;19948;-83
2022/10/20 02:17:47;;;;;;;;;;;8.00;86.90;;;;;;5025814;28;20040;-83
2022/10/20 02:20:13;;;;;;;;;;;7.90;87.40;;;;;;5012656;28;19918;-83
2022/10/20 02:22:39;;;;;;;;;;;7.60;87.90;;;;;;5015492;28;20407;-84
2022/10/20 02:25:05;;;;;;;;;;;7.60;88.20;;;;;;5014648;28;20395;-84
2022/10/20 02:27:32;;;;;;;;;;;7.60;88.60;;;;;;5020519;28;19902;-83
2022/10/20 02:30:00;;;;;;;;;;;7.70;88.70;;;;;;5026947;28;19921;-84
2022/10/20 02:32:26;;;;;;;;;;;7.80;88.40;;;;;;5019709;28;19913;-84
2022/10/20 02:34:51;;;;;;;;;;;7.90;88.70;;;;;;5027387;28;19989;-84
2022/10/20 02:37:17;;;;;;;;;;;7.90;88.10;;;;;;5017914;28;19913;-84
2022/10/20 02:39:42;;;;;;;;;;;7.90;88.20;;;;;;5016456;28;19964;-84
2022/10/20 02:42:08;;;;;;;;;;;8.10;87.70;;;;;;5017907;28;19917;-84
2022/10/20 02:44:33;;;;;;;;;;;8.00;87.60;;;;;;5017556;28;19964;-83
2022/10/20 02:46:59;;;;;;;;;;;8.00;87.90;;;;;;5015834;28;20379;-84
2022/10/20 02:49:26;;;;;;;;;;;8.10;87.90;;;;;;5014071;28;20028;-83
2022/10/20 02:51:51;;;;;;;;;;;8.20;87.90;;;;;;5022140;28;19913;-84
2022/10/20 02:54:17;;;;;;;;;;;8.20;87.40;;;;;;5021180;28;19917;-83
2022/10/20 02:56:42;;;;;;;;;;;8.40;87.10;;;;;;5016095;28;20059;-83
2022/10/20 02:59:11;;;;;;;;;;;8.30;86.50;;;;;;5016059;28;19926;-83
2022/10/20 03:01:36;;;;;;;;;;;8.10;87.00;;;;;;5012794;28;19917;-83
2022/10/20 03:04:02;;;;;;;;;;;8.10;87.20;;;;;;5013141;28;19914;-83
2022/10/20 03:06:27;;;;;;;;;;;8.00;87.10;;;;;;5013010;28;19909;-84
2022/10/20 03:08:53;;;;;;;;;;;7.90;87.40;;;;;;5011458;28;20221;-83
2022/10/20 03:11:18;;;;;;;;;;;7.90;87.80;;;;;;5015383;28;19909;-83
2022/10/20 03:13:44;;;;;;;;;;;7.80;87.80;;;;;;5017336;28;20433;-84
2022/10/20 03:16:09;;;;;;;;;;;7.80;88.30;;;;;;5019610;28;19932;-83
2022/10/20 03:18:34;;;;;;;;;;;8.00;88.20;;;;;;5014052;28;19972;-83
2022/10/20 03:21:00;;;;;;;;;;;8.10;87.60;;;;;;5002400;28;19920;-84
2022/10/20 03:23:25;;;;;;;;;;;8.00;87.60;;;;;;5010822;28;19921;-84
2022/10/20 03:25:51;;;;;;;;;;;7.90;87.70;;;;;;5026321;28;19915;-84
2022/10/20 03:28:16;;;;;;;;;;;7.90;87.70;;;;;;5022079;28;20021;-83
2022/10/20 03:30:42;;;;;;;;;;;8.00;88.20;;;;;;5013193;28;19949;-83
2022/10/20 03:33:07;;;;;;;;;;;7.90;87.90;;;;;;5011960;28;20394;-83
2022/10/20 03:35:33;;;;;;;;;;;8.10;87.70;;;;;;5013164;28;19952;-84
2022/10/20 03:37:58;;;;;;;;;;;8.00;87.70;;;;;;5013603;28;19924;-84
2022/10/20 03:40:23;;;;;;;;;;;8.00;87.70;;;;;;5018162;28;19949;-83
2022/10/20 03:42:49;;;;;;;;;;;8.00;87.70;;;;;;5013391;28;19917;-83
2022/10/20 03:45:14;;;;;;;;;;;8.00;87.80;;;;;;5009228;28;20283;-83
2022/10/20 03:47:40;;;;;;;;;;;8.10;87.60;;;;;;5009828;28;19913;-83
2022/10/20 03:50:05;;;;;;;;;;;8.10;87.70;;;;;;5013192;28;19917;-83
2022/10/20 03:52:31;;;;;;;;;;;8.10;87.20;;;;;;5011639;28;19913;-84
2022/10/20 03:54:56;;;;;;;;;;;8.00;87.60;;;;;;5011804;28;19909;-83
2022/10/20 03:57:22;;;;;;;;;;;8.00;87.70;;;;;;5034144;28;19933;-82
2022/10/20 03:59:47;;;;;;;;;;;8.10;87.10;;;;;;5043735;28;19905;-82
2022/10/20 04:02:21;;;;;;;;;;;8.00;87.40;;;;;;5017546;28;19951;-83
2022/10/20 04:04:47;;;;;;;;;;;8.10;87.20;;;;;;5007194;28;19914;-82
2022/10/20 04:07:12;;;;;;;;;;;8.00;87.60;;;;;;4990864;28;19909;-83
2022/10/20 04:09:37;;;;;;;;;;;8.10;87.70;;;;;;5004403;28;20402;-83
2022/10/20 04:12:03;;;;;;;;;;;8.10;87.50;;;;;;5009403;28;19921;-84
2022/10/20 04:14:28;;;;;;;;;;;8.20;87.50;;;;;;5013511;28;20347;-83
2022/10/20 04:16:54;;;;;;;;;;;8.10;87.50;;;;;;5014774;28;20406;-83
2022/10/20 04:19:19;;;;;;;;;;;8.10;87.30;;;;;;5013872;28;19960;-83
2022/10/20 04:21:44;;;;;;;;;;;8.10;87.20;;;;;;5012989;28;19967;-84
2022/10/20 04:24:10;;;;;;;;;;;8.10;87.30;;;;;;5014193;28;19917;-84
2022/10/20 04:26:35;;;;;;;;;;;8.30;86.50;;;;;;5014475;28;19920;-83
2022/10/20 04:29:01;;;;;;;;;;;8.10;86.70;;;;;;5015067;28;19928;-84
2022/10/20 04:31:27;;;;;;;;;;;8.10;87.20;;;;;;5010938;28;19914;-85
2022/10/20 04:33:52;;;;;;;;;;;8.20;87.60;;;;;;5014130;28;19921;-87
2022/10/20 04:36:18;;;;;;;;;;;8.30;86.80;;;;;;5013002;28;19929;-86
2022/10/20 04:38:43;;;;;;;;;;;8.20;86.80;;;;;;5011632;28;19918;-87
2022/10/20 04:41:09;;;;;;;;;;;8.30;86.50;;;;;;5018421;28;20037;-85
2022/10/20 04:43:34;;;;;;;;;;;8.20;86.60;;;;;;5017951;28;19917;-85
2022/10/20 04:46:01;;;;;;;;;;;8.30;86.30;;;;;;5014514;28;19924;-94
2022/10/20 04:48:26;;;;;;;;;;;8.40;85.70;;;;;;5023600;28;19913;-86
2022/10/20 04:50:59;;;;;;;;;;;8.30;86.40;;;;;;5011761;28;20081;-86
2022/10/20 04:53:24;;;;;;;;;;;8.30;86.10;;;;;;5017722;28;19920;-85
2022/10/20 04:55:53;;;;;;;;;;;8.00;86.80;;;;;;5024435;28;19913;-86
2022/10/20 04:58:19;;;;;;;;;;;8.10;87.20;;;;;;5025824;28;19924;-84
2022/10/20 05:00:44;;;;;;;;;;;8.20;87.40;;;;;;5040951;28;19913;-83
2022/10/20 05:03:10;;;;;;;;;;;8.20;87.00;;;;;;5032820;28;19985;-83
2022/10/20 05:05:35;;;;;;;;;;;8.30;87.10;;;;;;5027616;28;20293;-84
2022/10/20 05:08:00;;;;;;;;;;;8.10;87.10;;;;;;5024516;28;19908;-84
2022/10/20 05:10:26;;;;;;;;;;;8.00;87.10;;;;;;5019380;28;20504;-83
2022/10/20 05:12:51;;;;;;;;;;;7.80;87.40;;;;;;5037440;28;19913;-83
2022/10/20 05:15:17;;;;;;;;;;;7.80;87.80;;;;;;5028941;28;19913;-83
2022/10/20 05:17:42;;;;;;;;;;;7.80;88.00;;;;;;5023091;28;19949;-84
2022/10/20 05:20:08;;;;;;;;;;;7.80;88.10;;;;;;5020113;28;19920;-85
2022/10/20 05:22:37;;;;;;;;;;;8.00;88.30;;;;;;5012561;28;19924;-86
2022/10/20 05:25:03;;;;;;;;;;;8.10;87.90;;;;;;5009666;28;19914;-84
2022/10/20 05:27:28;;;;;;;;;;;8.10;87.60;;;;;;5021285;28;19913;-84
2022/10/20 05:29:56;;;;;;;;;;;8.20;87.30;;;;;;5019585;28;20490;-81
2022/10/20 05:32:25;;;;;;;;;;;8.20;87.40;;;;;;5013183;28;19921;-82
2022/10/20 05:34:51;;;;;;;;;;;8.20;87.50;;;;;;5020285;28;19941;-83
2022/10/20 05:37:24;;;;;;;;;;;8.20;87.20;;;;;;5018154;28;19918;-83
2022/10/20 05:39:49;;;;;;;;;;;8.10;87.20;;;;;;5015172;28;19921;-87
2022/10/20 05:42:15;;;;;;;;;;;8.30;86.80;;;;;;5018989;28;20375;-83
2022/10/20 05:44:40;;;;;;;;;;;8.20;86.80;;;;;;5014745;28;19917;-83
2022/10/20 05:47:05;;;;;;;;;;;8.10;87.00;;;;;;5022282;28;19976;-82
2022/10/20 05:49:31;;;;;;;;;;;8.10;86.90;;;;;;5014322;28;19987;-82
2022/10/20 05:51:56;;;;;;;;;;;8.00;87.30;;;;;;5013507;28;20330;-82
2022/10/20 05:54:22;;;;;;;;;;;8.00;87.40;;;;;;5012915;28;20398;-82
2022/10/20 05:56:47;;;;;;;;;;;7.90;87.60;;;;;;5014253;28;19909;-82
2022/10/20 05:59:13;;;;;;;;;;;7.80;87.70;;;;;;5015186;28;19921;-83
2022/10/20 06:01:46;;;;;;;;;;;7.70;87.90;;;;;;5013723;28;19920;-82
2022/10/20 06:04:12;;;;;;;;;;;7.60;88.20;;;;;;5010048;28;19929;-82
2022/10/20 06:06:38;;;;;;;;;;;7.70;88.60;;;;;;5009813;28;19955;-83
2022/10/20 06:09:05;;;;;;;;;;;7.70;88.50;;;;;;5012116;28;19913;-83
2022/10/20 06:11:30;;;;;;;;;;;7.70;88.50;;;;;;5012330;28;19909;-82
2022/10/20 06:13:56;;;;;;;;;;;7.80;88.30;;;;;;5012523;28;20319;-83
2022/10/20 06:16:23;;;;;;;;;;;7.90;88.10;;;;;;5014400;28;20295;-82
2022/10/20 06:18:49;;;;;;;;;;;7.90;88.20;;;;;;5013428;28;19924;-82
2022/10/20 06:21:15;;;;;;;;;;;7.90;88.10;;;;;;5013781;28;20106;-82
2022/10/20 06:23:41;;;;;;;;;;;7.90;88.20;;;;;;5014274;28;19992;-82
2022/10/20 06:26:07;;;;;;;;;;;8.00;88.30;;;;;;5019728;28;19961;-83
2022/10/20 06:28:34;;;;;;;;;;;7.90;88.00;;;;;;5012161;28;19936;-82
2022/10/20 06:30:59;;;;;;;;;;;7.90;88.00;;;;;;5012711;28;19913;-87
2022/10/20 06:33:28;;;;;;;;;;;7.90;87.90;;;;;;5011580;28;20016;-84
2022/10/20 06:35:57;;;;;;;;;;;8.10;88.00;;;;;;5013247;28;20037;-85
2022/10/20 06:38:22;;;;;;;;;;;8.30;88.10;;;;;;5011852;28;20298;-83
2022/10/20 06:40:48;;;;;;;;;;;8.40;87.40;;;;;;5010192;28;19918;-85
2022/10/20 06:43:13;;;;;;;;;;;8.30;87.10;;;;;;5012533;28;20288;-87
2022/10/20 06:45:38;;;;;;;;;;;8.50;87.20;;;;;;5010372;22;19925;-82
2022/10/20 06:48:04;;;;;;;;;;;8.60;87.20;;;;;;5018992;28;19909;-82
2022/10/20 06:50:31;;;;;;;;;;;8.60;86.90;;;;;;5003919;28;19910;-82
2022/10/20 06:52:57;;;;;;;;;;;8.70;87.00;;;;;;5032503;28;19913;-82
2022/10/20 06:55:22;;;;;;;;;;;8.80;86.90;;;;;;5036040;28;20030;-82
2022/10/20 06:57:48;;;;;;;;;;;8.90;87.00;;;;;;5014026;28;20395;-81
2022/10/20 07:00:13;;;;;;;;;;;9.00;86.80;;;;;;5016877;28;19913;-81
2022/10/20 07:02:39;;;;;;;;;;;9.00;86.70;;;;;;5034734;28;19999;-81
2022/10/20 07:05:04;;;;;;;;;;;9.00;86.20;;;;;;5035148;28;19943;-81
2022/10/20 07:07:30;;;;;;;;;;;9.10;86.10;;;;;;5034480;28;19960;-82
2022/10/20 07:09:55;;;;;;;;;;;9.20;85.80;;;;;;5028840;28;19909;-82
2022/10/20 07:12:21;;;;;;;;;;;9.10;85.00;;;;;;5041059;28;19921;-83
2022/10/20 07:14:47;;;;;;;;;;;9.30;85.00;;;;;;5013879;28;19920;-83
2022/10/20 07:17:12;;;;;;;;;;;9.30;84.80;;;;;;5030808;28;19920;-83
2022/10/20 07:19:38;;;;;;;;;;;9.30;84.90;;;;;;5012567;28;19917;-83
2022/10/20 07:22:03;;;;;;;;;;;9.20;85.00;;;;;;5033363;28;19920;-83
2022/10/20 07:24:39;;;;;;;;;;;9.20;84.90;;;;;;5016581;28;20000;-83
2022/10/20 07:27:05;;;;;;;;;;;9.20;85.20;;;;;;5037582;28;19909;-83
2022/10/20 07:29:30;;;;;;;;;;;9.20;85.00;;;;;;5028043;28;19920;-83
2022/10/20 07:31:56;;;;;;;;;;;9.10;85.10;;;;;;5017903;28;20330;-83
2022/10/20 07:34:24;;;;;;;;;;;9.30;85.20;;;;;;5015750;28;19913;-83
2022/10/20 07:36:50;;;;;;;;;;;9.30;85.20;;;;;;5025301;28;19916;-83
2022/10/20 07:39:19;;;;;;;;;;;9.40;85.10;;;;;;5034766;28;20350;-83
2022/10/20 07:45:01;;;;;;;;;;;9.40;85.20;;;;;;5027898;28;19920;-83
2022/10/20 07:47:29;;;;;;;;;;;9.40;85.00;;;;;;5014051;28;19943;-82
2022/10/20 07:49:55;;;;;;;;;;;9.50;85.20;;;;;;5012777;28;20328;-82
2022/10/20 07:52:21;;;;;;;;;;;9.60;85.30;;;;;;5011834;28;19976;-82
2022/10/20 07:54:46;;;;;;;;;;;9.70;85.10;;;;;;5016645;28;19935;-85
2022/10/20 07:57:12;;;;;;;;;;;9.70;85.10;;;;;;5026766;28;19921;-83
2022/10/20 07:59:40;;;;;;;;;;;9.80;85.20;;;;;;5026115;28;19928;-85
2022/10/20 08:02:19;;;;;;;;;;;9.80;85.00;;;;;;5007545;28;19913;-83
2022/10/20 08:04:45;;;;;;;;;;;9.90;84.20;;;;;;5031276;28;19928;-83
2022/10/20 08:07:10;;;;;;;;;;;9.80;84.70;;;;;;5041666;28;19921;-82
2022/10/20 08:09:36;;;;;;;;;;;10.10;84.40;;;;;;5013639;28;19921;-84
2022/10/20 08:12:23;;;;;;;;;;;10.10;84.30;;;;;;5013999;28;19964;-84
2022/10/20 08:14:54;;;;;;;;;;;10.10;84.50;;;;;;5020622;28;19921;-84
2022/10/20 08:17:22;;;;;;;;;;;10.30;84.40;;;;;;5014976;28;19917;-83
2022/10/20 08:19:47;;;;;;;;;;;10.40;84.40;;;;;;5026767;28;19957;-84
2022/10/20 08:22:24;;;;;;;;;;;10.70;84.50;;;;;;5033055;28;20375;-84
2022/10/20 08:24:50;;;;;;;;;;;10.80;84.20;;;;;;5028970;28;19917;-84
2022/10/20 08:27:15;;;;;;;;;;;11.00;84.00;;;;;;5013271;28;19975;-83
2022/10/20 08:30:01;;;;;;;;;;;11.00;84.30;;;;;;5010718;28;19917;-83
2022/10/20 08:32:29;;;;;;;;;;;11.10;84.50;;;;;;5028519;28;19913;-84
2022/10/20 08:34:58;;;;;;;;;;;11.20;84.90;;;;;;5007471;28;19971;-83
2022/10/20 08:37:37;;;;;;;;;;;11.50;85.10;;;;;;5012445;28;19939;-84
2022/10/20 08:40:17;;;;;;;;;;;11.60;85.10;;;;;;5027389;28;20031;-84
2022/10/20 08:43:08;;;;;;;;;;;11.70;85.50;;;;;;5008809;28;19918;-85
2022/10/20 08:45:37;;;;;;;;;;;11.90;85.60;;;;;;5029202;28;19917;-85
2022/10/20 08:48:03;;;;;;;;;;;12.00;85.90;;;;;;5011790;28;20394;-84
2022/10/20 08:50:30;;;;;;;;;;;12.10;86.20;;;;;;5027722;28;19914;-84
2022/10/20 08:53:01;;;;;;;;;;;12.30;86.50;;;;;;5025719;28;19956;-85
2022/10/20 08:55:31;;;;;;;;;;;12.50;86.80;;;;;;5026568;28;20022;-89
2022/10/20 08:58:04;;;;;;;;;;;12.60;86.80;;;;;;5013168;28;19914;-86
2022/10/20 09:00:30;;;;;;;;;;;12.60;86.90;;;;;;5012362;28;19913;-86
2022/10/20 09:02:58;;;;;;;;;;;12.90;86.20;;;;;;5016222;28;19935;-86
2022/10/20 09:05:27;;;;;;;;;;;13.10;85.90;;;;;;5019575;28;19913;-86
2022/10/20 09:07:53;;;;;;;;;;;13.10;85.30;;;;;;5023714;28;19939;-86
2022/10/20 09:10:36;;;;;;;;;;;13.30;85.20;;;;;;5014008;28;19924;-86
2022/10/20 09:13:15;;;;;;;;;;;13.50;84.50;;;;;;5011963;28;19913;-86
2022/10/20 09:15:40;;;;;;;;;;;13.50;84.20;;;;;;5032511;28;20093;-86
2022/10/20 09:18:09;;;;;;;;;;;13.60;84.00;;;;;;5012901;28;19997;-86
2022/10/20 09:20:40;;;;;;;;;;;13.60;84.30;;;;;;5012498;28;19921;-84
2022/10/20 09:23:08;;;;;;;;;;;13.60;84.20;;;;;;5015601;28;20027;-86
2022/10/20 09:25:34;;;;;;;;;;;13.70;83.90;;;;;;5011511;28;19997;-86
2022/10/20 09:27:59;;;;;;;;;;;13.80;83.70;;;;;;5019127;28;19940;-86
2022/10/20 09:30:28;;;;;;;;;;;13.80;83.80;;;;;;5018318;28;19913;-87
2022/10/20 09:32:53;;;;;;;;;;;13.90;83.60;;;;;;5034599;28;19923;-88
2022/10/20 09:35:21;;;;;;;;;;;13.90;83.80;;;;;;5024989;28;19968;-88
2022/10/20 09:37:52;;;;;;;;;;;14.10;82.40;;;;;;5025596;28;19917;-85
2022/10/20 09:40:18;;;;;;;;;;;14.30;81.30;;;;;;5016549;28;19944;-86
2022/10/20 09:42:49;;;;;;;;;;;14.40;81.30;;;;;;5037604;28;20075;-82
2022/10/20 09:45:27;;;;;;;;;;;14.40;81.30;;;;;;5034796;28;19924;-82
2022/10/20 09:47:54;;;;;;;;;;;14.70;80.40;;;;;;5015958;28;19939;-80
2022/10/20 09:50:27;;;;;;;;;;;14.90;80.00;;;;;;5009289;28;19968;-82
2022/10/20 09:52:53;;;;;;;;;;;14.90;79.50;;;;;;5015201;28;19928;-84
2022/10/20 09:55:27;;;;;;;;;;;14.80;80.00;;;;;;5026853;28;19913;-84
2022/10/20 09:57:53;;;;;;;;;;;14.90;79.50;;;;;;5013270;28;20045;-82
2022/10/20 10:00:27;;;;;;;;;;;15.00;79.60;;;;;;5011933;28;19969;-83
2022/10/20 10:03:13;;;;;;;;;;;14.80;79.80;;;;;;5012448;28;20418;-82
2022/10/20 10:05:39;;;;;;;;;;;14.90;79.40;;;;;;5032213;28;20394;-82
2022/10/20 10:08:04;;;;;;;;;;;15.00;78.90;;;;;;5027410;28;19921;-83
2022/10/20 10:10:30;;;;;;;;;;;15.00;78.60;;;;;;5031795;28;20032;-83
2022/10/20 10:12:59;;;;;;;;;;;15.20;78.40;;;;;;5016184;28;19920;-82
2022/10/20 10:15:24;;;;;;;;;;;15.10;78.60;;;;;;5013596;28;19917;-83
2022/10/20 10:17:50;;;;;;;;;;;15.20;78.60;;;;;;5012222;28;20047;-82
2022/10/20 10:20:15;;;;;;;;;;;15.20;78.00;;;;;;5027358;28;19944;-80
2022/10/20 10:22:41;;;;;;;;;;;15.40;77.90;;;;;;5008388;28;19917;-82
2022/10/20 10:25:13;;;;;;;;;;;15.30;78.40;;;;;;5011754;28;19913;-82
2022/10/20 10:27:45;;;;;;;;;;;15.40;77.80;;;;;;5005859;28;19931;-82
2022/10/20 10:30:26;;;;;;;;;;;15.60;77.20;;;;;;5007975;28;19959;-81
2022/10/20 10:32:52;;;;;;;;;;;15.50;77.40;;;;;;5023743;28;19959;-82
2022/10/20 10:35:26;;;;;;;;;;;15.60;77.00;;;;;;5005536;28;19936;-85
2022/10/20 10:37:52;;;;;;;;;;;15.50;77.90;;;;;;5005160;28;19921;-85
2022/10/20 10:40:28;;;;;;;;;;;15.40;77.60;;;;;;5023287;28;19924;-85
2022/10/20 10:43:02;;;;;;;;;;;15.50;77.40;;;;;;5022047;28;20387;-84
2022/10/20 10:45:40;;;;;;;;;;;15.40;77.90;;;;;;5007311;28;20356;-84
2022/10/20 10:48:09;;;;;;;;;;;15.30;77.50;;;;;;5008453;28;19917;-84
2022/10/20 10:50:43;;;;;;;;;;;15.30;77.60;;;;;;5004937;28;20346;-84
2022/10/20 10:53:18;;;;;;;;;;;15.30;77.70;;;;;;5006907;28;19913;-82
2022/10/20 10:55:56;;;;;;;;;;;15.30;78.00;;;;;;5024576;28;19928;-81
2022/10/20 10:58:35;;;;;;;;;;;15.20;78.10;;;;;;5020660;28;19921;-84
2022/10/20 11:01:00;;;;;;;;;;;15.30;77.90;;;;;;5008526;28;19913;-84
2022/10/20 11:03:43;;;;;;;;;;;15.30;78.00;;;;;;5007387;28;20284;-83
2022/10/20 11:06:31;;;;;;;;;;;15.40;77.90;;;;;;5025126;28;19924;-86
2022/10/20 11:08:56;;;;;;;;;;;15.30;77.60;;;;;;5021787;28;19952;-86
2022/10/20 11:11:28;;;;;;;;;;;15.30;77.80;;;;;;5007526;28;20280;-86
2022/10/20 11:14:12;;;;;;;;;;;15.50;77.40;;;;;;4994358;28;19913;-85
2022/10/20 11:16:40;;;;;;;;;;;15.70;76.10;;;;;;5011726;28;19913;-87
2022/10/20 11:19:27;;;;;;;;;;;15.70;76.40;;;;;;5003474;28;20055;-85
2022/10/20 11:21:53;;;;;;;;;;;15.80;76.10;;;;;;5028115;28;19920;-87
2022/10/20 11:24:21;;;;;;;;;;;15.70;76.60;;;;;;4995332;28;19909;-86
2022/10/20 11:26:51;;;;;;;;;;;15.60;76.80;;;;;;5013403;28;19909;-89
2022/10/20 11:29:23;;;;;;;;;;;15.70;76.90;;;;;;5007501;28;19921;-85
2022/10/20 11:32:00;;;;;;;;;;;15.70;76.30;;;;;;4995394;28;19916;-86
2022/10/20 11:34:34;;;;;;;;;;;15.60;76.90;;;;;;5004565;28;19935;-86
2022/10/20 11:37:12;;;;;;;;;;;15.50;77.10;;;;;;5012737;28;19917;-86
2022/10/20 11:39:43;;;;;;;;;;;15.50;77.50;;;;;;5031899;28;19928;-86
2022/10/20 11:42:24;;;;;;;;;;;15.40;78.10;;;;;;5014675;28;19915;-86
2022/10/20 11:44:51;;;;;;;;;;;15.10;79.80;;;;;;5014366;28;20008;-86
2022/10/20 11:47:20;;;;;;;;;;;15.10;80.50;;;;;;5013967;28;19974;-86
2022/10/20 11:49:45;;;;;;;;;;;15.10;81.00;;;;;;5013131;28;19909;-85
2022/10/20 11:52:19;;;;;;;;;;;15.20;81.00;;;;;;5031243;28;19963;-84
2022/10/20 11:54:57;;;;;;;;;;;15.10;81.40;;;;;;5012924;28;19955;-85
2022/10/20 11:57:32;;;;;;;;;;;15.00;81.60;;;;;;5030801;28;19917;-85
2022/10/20 11:59:57;;;;;;;;;;;15.10;81.50;;;;;;5028313;28;19928;-87
2022/10/20 12:02:28;;;;;;;;;;;15.20;80.60;;;;;;5028463;28;19921;-89
2022/10/20 12:05:15;;;;;;;;;;;15.30;80.90;;;;;;5000221;28;19921;-89
2022/10/20 12:07:49;;;;;;;;;;;15.50;80.30;;;;;;5028317;28;19960;-88
2022/10/20 12:10:27;;;;;;;;;;;15.50;80.40;;;;;;5022379;28;19921;-84
2022/10/20 12:12:56;;;;;;;;;;;15.60;79.70;;;;;;5023629;28;20027;-85
2022/10/20 12:15:23;;;;;;;;;;;15.60;79.60;;;;;;5013736;28;19913;-85
2022/10/20 12:17:50;;;;;;;;;;;15.60;79.10;;;;;;5033649;28;19913;-85
2022/10/20 12:20:19;;;;;;;;;;;15.60;79.10;;;;;;5018146;28;19917;-84
2022/10/20 12:22:45;;;;;;;;;;;15.50;79.50;;;;;;5014189;28;19924;-84
2022/10/20 12:25:16;;;;;;;;;;;15.50;80.00;;;;;;5027119;28;19936;-84
2022/10/20 12:27:41;;;;;;;;;;;15.50;80.00;;;;;;5017723;28;19925;-85
2022/10/20 12:30:26;;;;;;;;;;;15.60;80.00;;;;;;5024762;28;19909;-85
2022/10/20 12:32:53;;;;;;;;;;;15.60;80.00;;;;;;5010979;28;20012;-85
2022/10/20 12:35:18;;;;;;;;;;;15.60;80.60;;;;;;5014772;28;19917;-85
2022/10/20 12:37:53;;;;;;;;;;;15.50;81.30;;;;;;5014757;28;20005;-85
2022/10/20 12:40:23;;;;;;;;;;;15.40;81.10;;;;;;5024007;28;20390;-86
2022/10/20 12:42:50;;;;;;;;;;;15.30;81.80;;;;;;5016285;28;19913;-87
2022/10/20 12:45:19;;;;;;;;;;;15.30;81.70;;;;;;4894739;23;19924;-84
2022/10/20 12:47:49;;;;;;;;;;;15.10;82.30;;;;;;5029833;28;19917;-86
2022/10/20 12:54:10;;;;;;;;;;;15.10;82.60;;;;;;4983162;28;20848;-84
2022/10/20 12:56:39;;;;;;;;;;;15.00;83.40;;;;;;5013653;23;20425;-82
2022/10/20 12:59:24;;;;;;;;;;;15.00;83.70;;;;;;5014815;28;19921;-83
2022/10/20 13:02:08;;;;;;;;;;;15.00;83.70;;;;;;5015788;28;19932;-83
2022/10/20 13:04:53;;;;;;;;;;;15.00;84.20;;;;;;5017485;28;19988;-83
2022/10/20 13:07:37;;;;;;;;;;;14.90;84.30;;;;;;5016530;28;19909;-82
2022/10/20 13:10:23;;;;;;;;;;;14.90;84.10;;;;;;5015939;28;20251;-82
2022/10/20 13:12:48;;;;;;;;;;;14.90;84.60;;;;;;5015011;28;20337;-83
2022/10/20 13:15:16;;;;;;;;;;;14.80;84.70;;;;;;5017623;28;19967;-83
2022/10/20 13:17:48;;;;;;;;;;;14.80;85.20;;;;;;5017443;28;19909;-82
2022/10/20 13:20:34;;;;;;;;;;;14.70;85.70;;;;;;5019707;28;20376;-82
2022/10/20 13:23:00;;;;;;;;;;;14.60;86.60;;;;;;4989572;28;19910;-82
2022/10/20 13:25:25;;;;;;;;;;;14.60;86.60;;;;;;5002768;28;19921;-81
2022/10/20 13:28:00;;;;;;;;;;;14.60;86.90;;;;;;5012877;28;19917;-82
2022/10/20 13:30:26;;;;;;;;;;;14.60;86.70;;;;;;5000838;28;19918;-82
2022/10/20 13:33:01;;;;;;;;;;;14.80;86.50;;;;;;5022042;28;19920;-82
2022/10/20 13:35:31;;;;;;;;;;;14.90;86.40;;;;;;5019696;28;19918;-82
2022/10/20 13:38:10;;;;;;;;;;;15.00;85.90;;;;;;5018593;28;19960;-82
2022/10/20 13:40:54;;;;;;;;;;;15.00;86.30;;;;;;5019913;28;19924;-79
2022/10/20 13:43:28;;;;;;;;;;;15.10;85.80;;;;;;5026720;28;19914;-79
2022/10/20 13:45:53;;;;;;;;;;;15.20;85.70;;;;;;5028513;28;19909;-80
2022/10/20 13:48:38;;;;;;;;;;;15.20;85.10;;;;;;5029085;28;20367;-80
2022/10/20 13:51:06;;;;;;;;;;;15.20;85.10;;;;;;5030711;28;19909;-79
2022/10/20 13:53:35;;;;;;;;;;;15.30;85.10;;;;;;5029895;28;19966;-79
2022/10/20 13:56:17;;;;;;;;;;;15.30;84.70;;;;;;5025319;28;19953;-80
2022/10/20 13:59:03;;;;;;;;;;;15.40;84.70;;;;;;5021847;28;19917;-80
2022/10/20 14:01:30;;;;;;;;;;;15.50;84.20;;;;;;5022855;28;19963;-80
2022/10/20 14:03:56;;;;;;;;;;;15.50;84.20;;;;;;5024952;28;19925;-79
2022/10/20 14:06:28;;;;;;;;;;;15.60;83.40;;;;;;5023929;28;19985;-80
2022/10/20 14:08:53;;;;;;;;;;;15.60;84.00;;;;;;5024536;28;19910;-80
2022/10/20 14:11:19;;;;;;;;;;;15.70;83.90;;;;;;5025597;28;19940;-80
2022/10/20 14:13:45;;;;;;;;;;;15.70;83.60;;;;;;5027323;28;19956;-80
2022/10/20 14:16:18;;;;;;;;;;;15.80;83.60;;;;;;5028326;28;19977;-80
2022/10/20 14:18:57;;;;;;;;;;;15.70;83.80;;;;;;5028131;28;19917;-80
2022/10/20 14:21:27;;;;;;;;;;;15.60;84.10;;;;;;5026654;28;19917;-80
2022/10/20 14:23:54;;;;;;;;;;;15.80;83.60;;;;;;5025690;28;19909;-79
2022/10/20 14:26:21;;;;;;;;;;;15.80;84.10;;;;;;5024587;28;19914;-80
2022/10/20 14:28:50;;;;;;;;;;;15.70;83.80;;;;;;5016798;28;19992;-80
2022/10/20 14:31:19;;;;;;;;;;;15.70;84.00;;;;;;5022826;28;20305;-80
2022/10/20 14:33:46;;;;;;;;;;;15.70;84.40;;;;;;5024642;28;19976;-80
2022/10/20 14:36:20;;;;;;;;;;;15.60;84.30;;;;;;5013954;28;19916;-80
2022/10/20 14:38:46;;;;;;;;;;;15.80;84.60;;;;;;5016453;28;19924;-80
2022/10/20 14:41:22;;;;;;;;;;;16.00;84.00;;;;;;5025728;28;19914;-80